Time;durP1;ratioP1;P1;durP2;ratioP2;P2;SDS_P1;SDS_P2;PMS_P1;PMS_P2;Temp;Humidity;BMP_temperature;BMP_pressure;BME280_temperature;BME280_humidity;BME280_pressure;Samples;Min_cycle;Max_cycle;Signal;HPM_P1;HPM_P2
2021/09/13 00:00:29;;;;;;;6.15;4.95;;;15.80;99.90;15.80;100726.00;;;;4977879;28;117474;-64
2021/09/13 00:02:55;;;;;;;7.07;5.05;;;15.80;99.90;15.80;100720.00;;;;4978070;28;87839;-65
2021/09/13 00:05:22;;;;;;;6.18;4.97;;;15.70;99.90;15.70;100720.00;;;;4978431;28;87997;-65
2021/09/13 00:07:48;;;;;;;5.95;4.65;;;15.70;99.90;15.70;100729.00;;;;4977449;28;89913;-65
2021/09/13 00:10:14;;;;;;;5.88;4.47;;;15.60;99.90;15.60;100720.00;;;;4978190;28;89442;-65
2021/09/13 00:12:40;;;;;;;7.13;5.22;;;15.60;99.90;15.60;100730.00;;;;4978139;28;87792;-65
2021/09/13 00:15:08;;;;;;;5.05;3.70;;;15.50;99.90;15.50;100716.00;;;;4978523;28;87574;-65
2021/09/13 00:17:33;;;;;;;7.10;4.68;;;15.50;99.90;15.50;100723.00;;;;4959322;28;88327;-65
2021/09/13 00:19:59;;;;;;;6.10;5.18;;;15.40;99.90;15.40;100726.00;;;;4976626;28;116964;-64
2021/09/13 00:22:25;;;;;;;6.07;4.85;;;15.40;99.90;15.40;100729.00;;;;4977735;28;87819;-65
2021/09/13 00:24:51;;;;;;;9.52;4.05;;;15.40;99.90;15.30;100727.00;;;;4977174;28;107253;-64
2021/09/13 00:27:16;;;;;;;7.60;4.63;;;15.30;99.90;15.30;100724.00;;;;4976483;28;118681;-64
2021/09/13 00:29:42;;;;;;;7.33;4.77;;;15.20;99.90;15.30;100734.00;;;;4976420;28;115408;-65
2021/09/13 00:32:08;;;;;;;9.13;4.15;;;15.20;99.90;15.20;100733.00;;;;4975252;28;110331;-65
2021/09/13 00:34:35;;;;;;;7.95;4.85;;;15.20;99.90;15.20;100743.00;;;;4977870;28;87807;-65
2021/09/13 00:37:03;;;;;;;5.70;4.68;;;15.10;99.90;15.20;100745.00;;;;4977944;28;88826;-66
2021/09/13 00:39:29;;;;;;;7.85;5.35;;;15.10;99.90;15.10;100740.00;;;;4976971;28;88889;-66
2021/09/13 00:41:54;;;;;;;7.55;5.78;;;15.10;99.90;15.10;100735.00;;;;4976590;28;110492;-66
2021/09/13 00:44:20;;;;;;;7.18;5.47;;;15.10;99.90;15.10;100732.00;;;;4976821;28;107544;-66
2021/09/13 00:46:46;;;;;;;10.45;5.53;;;15.00;99.90;15.10;100734.00;;;;4977417;28;88689;-66
2021/09/13 00:49:12;;;;;;;4.78;3.85;;;15.00;99.90;15.00;100737.00;;;;4976981;28;108525;-66
2021/09/13 00:51:38;;;;;;;7.07;4.88;;;15.00;99.90;15.00;100737.00;;;;4976538;28;110701;-65
2021/09/13 00:54:03;;;;;;;6.88;4.22;;;15.00;99.90;15.00;100736.00;;;;4958521;28;92053;-65
2021/09/13 00:56:29;;;;;;;8.45;5.35;;;15.00;99.90;15.10;100736.00;;;;4976345;28;97847;-65
2021/09/13 00:58:55;;;;;;;10.52;5.18;;;15.00;99.90;15.10;100732.00;;;;4957315;28;118474;-65
2021/09/13 01:01:21;;;;;;;8.87;5.77;;;15.00;99.90;15.10;100726.00;;;;4976892;28;110682;-65
2021/09/13 01:03:47;;;;;;;7.65;5.00;;;15.00;99.90;15.10;100733.00;;;;4977237;28;87727;-65
2021/09/13 01:06:15;;;;;;;11.07;5.43;;;15.00;99.90;15.10;100728.00;;;;4977186;28;88205;-65
2021/09/13 01:08:42;;;;;;;11.05;4.95;;;15.00;99.90;15.10;100728.00;;;;4976585;28;88497;-65
2021/09/13 01:11:08;;;;;;;6.50;4.88;;;15.00;99.90;15.00;100735.00;;;;4977498;28;87630;-65
2021/09/13 01:13:34;;;;;;;9.05;5.57;;;15.00;99.90;15.00;100725.00;;;;4977077;28;94287;-66
2021/09/13 01:16:05;;;;;;;6.93;5.57;;;15.00;99.90;15.00;100728.00;;;;4958272;28;88138;-66
2021/09/13 01:18:31;;;;;;;5.57;4.18;;;14.90;99.90;15.00;100727.00;;;;4966830;28;87748;-65
2021/09/13 01:20:58;;;;;;;7.83;5.33;;;14.90;99.90;14.90;100722.00;;;;4976791;28;88832;-65
2021/09/13 01:23:34;;;;;;;5.72;4.00;;;14.90;99.90;14.90;100727.00;;;;4976887;28;87764;-66
2021/09/13 01:26:00;;;;;;;6.13;4.05;;;14.90;99.90;14.90;100719.00;;;;4976554;28;88486;-66
2021/09/13 01:28:26;;;;;;;7.60;5.17;;;14.80;99.90;14.90;100721.00;;;;4976624;28;98324;-65
2021/09/13 01:30:53;;;;;;;7.53;4.83;;;14.80;99.90;14.90;100718.00;;;;4976820;28;87790;-64
2021/09/13 01:33:20;;;;;;;7.43;4.75;;;14.80;99.90;14.90;100719.00;;;;4977151;28;87816;-65
2021/09/13 01:35:46;;;;;;;6.33;4.23;;;14.80;99.90;14.90;100718.00;;;;4976918;28;88180;-64
2021/09/13 01:38:12;;;;;;;7.80;5.20;;;14.80;99.90;14.90;100709.00;;;;4975877;28;116048;-65
2021/09/13 01:40:38;;;;;;;5.95;4.53;;;14.80;99.90;14.90;100718.00;;;;4975927;28;111011;-64
2021/09/13 01:43:04;;;;;;;5.68;4.25;;;14.90;99.90;14.90;100710.00;;;;4975389;28;109858;-65
2021/09/13 01:45:30;;;;;;;6.23;4.00;;;14.80;99.90;15.00;100725.00;;;;4975828;28;88821;-65
2021/09/13 01:47:56;;;;;;;6.87;5.07;;;14.90;99.90;15.00;100726.00;;;;4974106;28;89505;-65
2021/09/13 01:50:22;;;;;;;7.57;5.10;;;14.90;99.90;15.00;100723.00;;;;4975652;28;109324;-65
2021/09/13 01:52:48;;;;;;;7.40;5.23;;;14.90;99.90;15.00;100715.00;;;;4975334;28;109296;-65
2021/09/13 01:55:14;;;;;;;6.47;4.75;;;14.90;99.90;15.00;100721.00;;;;4976892;28;87759;-65
2021/09/13 01:57:40;;;;;;;5.20;4.45;;;15.00;99.90;15.10;100722.00;;;;4976670;28;98062;-65
2021/09/13 02:00:08;;;;;;;7.07;5.20;;;15.00;99.90;15.10;100722.00;;;;4975937;28;110745;-64
2021/09/13 02:02:34;;;;;;;6.05;3.83;;;15.00;99.90;15.10;100722.00;;;;4976987;28;86930;-65
2021/09/13 02:05:00;;;;;;;5.97;4.38;;;15.00;99.90;15.10;100729.00;;;;4975307;28;117787;-64
2021/09/13 02:07:26;;;;;;;5.88;4.65;;;15.00;99.90;15.10;100730.00;;;;4975469;28;117665;-65
2021/09/13 02:09:52;;;;;;;5.18;3.22;;;15.00;99.90;15.10;100732.00;;;;4974092;28;110447;-65
2021/09/13 02:12:21;;;;;;;7.20;4.00;;;15.00;99.90;15.10;100731.00;;;;4975517;28;87740;-67
2021/09/13 02:14:48;;;;;;;4.57;3.75;;;15.00;99.90;15.10;100736.00;;;;4973505;28;89071;-67
2021/09/13 02:17:15;;;;;;;4.88;4.38;;;15.00;99.90;15.10;100740.00;;;;4957517;28;88992;-66
2021/09/13 02:19:41;;;;;;;5.18;3.63;;;15.00;99.90;15.10;100733.00;;;;4976518;28;87556;-66
2021/09/13 02:22:06;;;;;;;6.72;4.32;;;15.00;99.90;15.10;100727.00;;;;4976184;28;87801;-65
2021/09/13 02:24:32;;;;;;;8.77;4.05;;;15.00;99.90;15.10;100725.00;;;;4975485;28;104065;-65
2021/09/13 02:26:58;;;;;;;6.25;3.88;;;15.00;99.90;15.20;100728.00;;;;4991310;28;88571;-65
2021/09/13 02:29:24;;;;;;;6.47;4.10;;;15.10;99.90;15.20;100735.00;;;;4983682;28;101487;-66
2021/09/13 02:31:51;;;;;;;4.18;3.75;;;15.10;99.90;15.20;100738.00;;;;4980695;28;87661;-66
2021/09/13 02:34:16;;;;;;;5.60;4.30;;;15.10;99.90;15.20;100728.00;;;;4975536;28;90289;-66
2021/09/13 02:36:42;;;;;;;6.30;4.28;;;15.10;99.90;15.20;100723.00;;;;4975591;28;110321;-66
2021/09/13 02:39:09;;;;;;;5.47;3.77;;;15.10;99.90;15.30;100732.00;;;;4975153;28;110785;-65
2021/09/13 02:41:36;;;;;;;4.68;3.75;;;15.20;99.90;15.30;100728.00;;;;4976177;28;87535;-66
2021/09/13 02:44:02;;;;;;;4.15;3.75;;;15.20;99.90;15.30;100728.00;;;;4975891;28;88085;-66
2021/09/13 02:46:28;;;;;;;8.07;3.92;;;15.20;99.90;15.30;100730.00;;;;4976116;28;97563;-65
2021/09/13 02:48:54;;;;;;;4.53;3.75;;;15.20;99.90;15.40;100732.00;;;;4975553;28;87780;-66
2021/09/13 02:51:20;;;;;;;5.78;3.92;;;15.20;99.90;15.40;100733.00;;;;4976715;28;86889;-65
2021/09/13 02:53:46;;;;;;;5.53;3.88;;;15.20;99.90;15.40;100729.00;;;;4975857;28;88007;-66
2021/09/13 02:56:11;;;;;;;6.65;4.38;;;15.30;99.90;15.30;100731.00;;;;4974986;28;105961;-67
2021/09/13 02:58:37;;;;;;;5.33;4.47;;;15.30;99.90;15.30;100737.00;;;;4977999;28;109335;-65
2021/09/13 03:01:03;;;;;;;5.50;3.67;;;15.20;99.90;15.30;100730.00;;;;4978346;28;107766;-66
2021/09/13 03:03:28;;;;;;;6.30;4.40;;;15.20;99.90;15.30;100732.00;;;;4978304;28;117499;-66
2021/09/13 03:05:54;;;;;;;5.13;4.10;;;15.20;99.90;15.30;100732.00;;;;4978220;28;117532;-65
2021/09/13 03:08:20;;;;;;;6.13;4.13;;;15.20;99.90;15.30;100730.00;;;;4979057;28;87706;-65
2021/09/13 03:10:46;;;;;;;5.00;3.30;;;15.20;99.90;15.30;100733.00;;;;4977772;28;108569;-66
2021/09/13 03:13:12;;;;;;;6.35;4.43;;;15.20;99.90;15.30;100734.00;;;;4978642;28;88306;-65
2021/09/13 03:15:37;;;;;;;6.05;3.90;;;15.20;99.90;15.30;100733.00;;;;4979275;28;88654;-65
2021/09/13 03:18:03;;;;;;;5.20;4.63;;;15.20;99.90;15.30;100742.00;;;;4978061;28;110059;-65
2021/09/13 03:20:29;;;;;;;8.60;4.22;;;15.20;99.90;15.30;100738.00;;;;4977998;28;109822;-65
2021/09/13 03:22:55;;;;;;;6.53;4.85;;;15.20;99.90;15.30;100739.00;;;;4977015;28;105596;-66
2021/09/13 03:25:21;;;;;;;7.43;5.22;;;15.20;99.90;15.30;100744.00;;;;4978772;28;96189;-66
2021/09/13 03:27:47;;;;;;;11.07;4.93;;;15.30;99.90;15.40;100739.00;;;;4978871;28;87613;-66
2021/09/13 03:30:13;;;;;;;5.88;4.38;;;15.30;99.90;15.40;100736.00;;;;4979246;28;87652;-66
2021/09/13 03:32:38;;;;;;;7.13;4.78;;;15.30;99.90;15.40;100739.00;;;;4978062;28;87962;-66
2021/09/13 03:35:05;;;;;;;7.17;4.77;;;15.30;99.90;15.40;100738.00;;;;4977790;28;116594;-66
2021/09/13 03:37:31;;;;;;;10.77;5.32;;;15.30;99.90;15.50;100733.00;;;;4978472;28;89798;-66
2021/09/13 03:39:56;;;;;;;7.40;4.50;;;15.40;99.90;15.50;100727.00;;;;4979283;28;87286;-66
2021/09/13 03:42:22;;;;;;;6.22;4.68;;;15.30;99.90;15.50;100730.00;;;;4977579;28;98218;-66
2021/09/13 03:44:48;;;;;;;7.70;5.75;;;15.40;99.90;15.50;100732.00;;;;4977279;28;116981;-66
2021/09/13 03:47:13;;;;;;;7.88;4.80;;;15.40;99.90;15.50;100733.00;;;;4976501;28;110302;-66
2021/09/13 03:49:39;;;;;;;7.80;4.50;;;15.40;99.90;15.50;100727.00;;;;4977940;28;102753;-66
2021/09/13 03:52:08;;;;;;;8.23;5.07;;;15.40;99.90;15.40;100740.00;;;;4977503;28;118335;-66
2021/09/13 03:54:35;;;;;;;5.95;4.65;;;15.40;99.90;15.40;100737.00;;;;4978189;28;88006;-66
2021/09/13 03:57:02;;;;;;;5.75;4.43;;;15.30;99.90;15.40;100735.00;;;;4978492;28;87591;-66
2021/09/13 03:59:28;;;;;;;6.53;5.22;;;15.30;99.90;15.40;100733.00;;;;4978251;28;87907;-66
2021/09/13 04:01:54;;;;;;;4.47;3.78;;;15.30;99.90;15.30;100731.00;;;;4959189;28;89159;-66
2021/09/13 04:04:23;;;;;;;7.95;5.57;;;15.30;99.90;15.30;100731.00;;;;4977500;28;114534;-66
2021/09/13 04:06:55;;;;;;;3.97;3.60;;;15.20;99.90;15.20;100726.00;;;;4977935;28;87693;-64
2021/09/13 04:11:57;;;;;;;7.68;4.72;;;15.10;99.90;15.10;100739.00;;;;4973804;28;106234;-65
2021/09/13 04:14:26;;;;;;;7.63;4.85;;;15.10;99.90;15.00;100731.00;;;;4977939;28;89420;-65
2021/09/13 04:16:54;;;;;;;5.70;4.55;;;15.00;99.90;15.00;100740.00;;;;4978434;28;87825;-65
2021/09/13 04:19:21;;;;;;;5.40;4.70;;;15.00;99.90;14.90;100732.00;;;;4978114;28;87768;-66
2021/09/13 04:21:47;;;;;;;5.13;4.43;;;14.80;99.90;14.90;100742.00;;;;4977456;28;87895;-65
2021/09/13 04:24:13;;;;;;;7.18;4.32;;;14.90;99.90;14.90;100731.00;;;;4976270;28;112325;-65
2021/09/13 04:26:39;;;;;;;9.10;4.90;;;14.80;99.90;14.80;100735.00;;;;4978656;28;87656;-65
2021/09/13 04:29:05;;;;;;;8.52;4.50;;;14.80;99.90;14.80;100733.00;;;;4978452;28;87165;-65
2021/09/13 04:31:31;;;;;;;5.55;4.85;;;14.70;99.90;14.80;100733.00;;;;4977373;28;88074;-65
2021/09/13 04:33:57;;;;;;;8.38;5.03;;;14.70;99.90;14.80;100744.00;;;;4976660;28;94737;-65
2021/09/13 04:36:23;;;;;;;7.37;4.90;;;14.70;99.90;14.80;100737.00;;;;4976555;28;110897;-66
2021/09/13 04:38:49;;;;;;;8.53;5.27;;;14.70;99.90;14.80;100735.00;;;;4958473;28;108985;-65
2021/09/13 04:41:14;;;;;;;4.90;4.32;;;14.70;99.90;14.80;100733.00;;;;4977208;28;88749;-66
2021/09/13 04:43:40;;;;;;;8.87;5.20;;;14.70;99.90;14.80;100733.00;;;;4977000;28;87833;-66
2021/09/13 04:46:06;;;;;;;5.53;4.63;;;14.70;99.90;14.90;100740.00;;;;4958753;28;103550;-65
2021/09/13 04:48:32;;;;;;;9.53;5.27;;;15.00;99.90;14.90;100739.00;;;;4976542;28;109692;-65
2021/09/13 04:50:57;;;;;;;4.80;3.70;;;14.80;99.90;14.90;100737.00;;;;4975505;28;118055;-65
2021/09/13 04:53:23;;;;;;;7.90;4.97;;;14.80;99.90;15.00;100751.00;;;;4965394;28;115027;-65
2021/09/13 04:55:49;;;;;;;5.95;4.00;;;14.90;99.90;15.00;100753.00;;;;4954068;28;110486;-64
2021/09/13 04:58:15;;;;;;;7.45;5.03;;;14.90;99.90;15.10;100753.00;;;;4953242;28;109680;-64
2021/09/13 05:00:41;;;;;;;7.10;5.07;;;14.90;99.90;15.10;100768.00;;;;4953604;28;117959;-65
2021/09/13 05:03:07;;;;;;;7.27;4.87;;;15.00;99.90;15.10;100761.00;;;;4956485;28;89591;-65
2021/09/13 05:05:33;;;;;;;7.00;5.50;;;15.00;99.90;15.10;100753.00;;;;4954738;28;88051;-65
2021/09/13 05:07:59;;;;;;;5.55;4.63;;;15.00;99.90;15.10;100749.00;;;;4953370;28;109153;-65
2021/09/13 05:10:25;;;;;;;16.00;4.65;;;15.00;99.90;15.20;100758.00;;;;4968687;28;118499;-65
2021/09/13 05:12:50;;;;;;;5.45;4.07;;;15.00;99.90;15.20;100759.00;;;;4955606;28;116561;-65
2021/09/13 05:15:17;;;;;;;6.00;4.53;;;15.10;99.90;15.20;100748.00;;;;4956305;28;110846;-65
2021/09/13 05:17:42;;;;;;;8.98;5.40;;;15.10;99.90;15.20;100747.00;;;;4971873;28;87048;-65
2021/09/13 05:20:09;;;;;;;5.07;4.57;;;15.20;99.90;15.30;100744.00;;;;4976741;28;87527;-65
2021/09/13 05:22:36;;;;;;;8.27;5.07;;;15.10;99.90;15.30;100741.00;;;;4976575;28;96991;-66
2021/09/13 05:25:02;;;;;;;7.13;4.70;;;15.20;99.90;15.30;100752.00;;;;4975314;28;110107;-65
2021/09/13 05:27:28;;;;;;;6.38;4.70;;;15.20;99.90;15.40;100751.00;;;;4958277;28;87883;-64
2021/09/13 05:29:53;;;;;;;7.28;5.00;;;15.20;99.90;15.40;100752.00;;;;4976208;28;94865;-67
2021/09/13 05:32:19;;;;;;;5.90;5.10;;;15.30;99.90;15.40;100760.00;;;;4976128;28;108463;-64
2021/09/13 05:34:45;;;;;;;6.90;4.93;;;15.30;99.90;15.50;100754.00;;;;4975566;28;111058;-64
2021/09/13 05:37:11;;;;;;;6.05;4.78;;;15.30;99.90;15.50;100759.00;;;;4977796;28;87980;-65
2021/09/13 05:39:36;;;;;;;6.22;4.78;;;15.30;99.90;15.50;100765.00;;;;4976364;28;87882;-65
2021/09/13 05:42:02;;;;;;;8.82;4.70;;;15.40;99.90;15.50;100757.00;;;;4977214;28;87217;-66
2021/09/13 05:44:29;;;;;;;9.80;6.15;;;15.40;99.90;15.60;100764.00;;;;4959818;28;97003;-64
2021/09/13 05:46:55;;;;;;;7.30;5.03;;;15.40;99.90;15.60;100764.00;;;;4958362;28;87885;-66
2021/09/13 05:49:21;;;;;;;6.22;4.93;;;15.50;99.90;15.70;100763.00;;;;4975825;28;88730;-65
2021/09/13 05:51:50;;;;;;;10.63;5.75;;;15.50;99.90;15.80;100771.00;;;;4975323;28;119901;-65
2021/09/13 05:54:21;;;;;;;6.85;5.40;;;15.60;99.90;15.80;100771.00;;;;4982986;28;87683;-65
2021/09/13 05:56:54;;;;;;;7.18;5.03;;;15.70;99.90;15.90;100776.00;;;;4992344;28;87795;-65
2021/09/13 05:59:22;;;;;;;9.23;5.38;;;15.80;99.90;16.00;100779.00;;;;4972149;28;88000;-65
2021/09/13 06:01:48;;;;;;;12.65;5.45;;;15.80;99.90;16.00;100779.00;;;;4977212;28;87821;-65
2021/09/13 06:04:15;;;;;;;7.93;4.55;;;15.90;99.90;16.10;100781.00;;;;4976595;28;87848;-66
2021/09/13 06:06:41;;;;;;;8.48;5.72;;;16.00;99.90;16.20;100775.00;;;;4977371;28;86909;-65
2021/09/13 06:09:08;;;;;;;6.45;4.82;;;16.00;99.90;16.20;100783.00;;;;4976143;28;88051;-65
2021/09/13 06:11:34;;;;;;;6.72;5.22;;;16.10;99.90;16.30;100781.00;;;;4976745;28;88128;-65
2021/09/13 06:13:59;;;;;;;6.30;5.35;;;16.10;99.90;16.30;100774.00;;;;4974719;28;97470;-65
2021/09/13 06:16:26;;;;;;;9.23;5.10;;;16.20;99.90;16.40;100771.00;;;;4976187;28;87831;-65
2021/09/13 06:18:51;;;;;;;9.00;5.28;;;16.30;99.90;16.40;100780.00;;;;4974899;28;117845;-65
2021/09/13 06:21:18;;;;;;;7.28;4.78;;;16.30;99.90;16.40;100791.00;;;;4973878;28;109334;-65
2021/09/13 06:23:44;;;;;;;6.90;5.55;;;16.30;99.90;16.40;100785.00;;;;4975155;28;87863;-65
2021/09/13 06:26:11;;;;;;;7.82;5.50;;;16.30;99.90;16.40;100780.00;;;;4975937;28;87986;-64
2021/09/13 06:28:38;;;;;;;10.25;5.13;;;16.30;99.90;16.40;100784.00;;;;4975699;28;88263;-65
2021/09/13 06:31:04;;;;;;;12.20;6.13;;;16.30;99.90;16.50;100780.00;;;;4977180;28;107854;-64
2021/09/13 06:33:31;;;;;;;8.63;5.55;;;16.30;99.90;16.50;100781.00;;;;4960790;28;87715;-65
2021/09/13 06:35:56;;;;;;;10.40;5.80;;;16.30;99.90;16.50;100786.00;;;;4980353;28;87794;-65
2021/09/13 06:38:22;;;;;;;9.05;5.65;;;16.30;99.90;16.50;100785.00;;;;4977892;28;119603;-64
2021/09/13 06:40:48;;;;;;;10.35;5.38;;;16.40;99.90;16.60;100788.00;;;;4979278;28;89612;-65
2021/09/13 06:43:16;;;;;;;8.15;4.95;;;16.40;99.90;16.70;100790.00;;;;4978231;28;111807;-65
2021/09/13 06:45:43;;;;;;;10.50;6.18;;;16.50;99.90;16.80;100793.00;;;;4979426;28;87636;-65
2021/09/13 06:48:11;;;;;;;9.93;5.40;;;16.60;99.90;16.90;100793.00;;;;4978081;28;88604;-65
2021/09/13 06:50:39;;;;;;;16.95;6.07;;;16.70;99.90;17.10;100797.00;;;;4979244;28;87781;-65
2021/09/13 06:53:05;;;;;;;7.10;5.43;;;16.80;99.90;17.30;100805.00;;;;4979002;28;87809;-65
2021/09/13 06:55:31;;;;;;;7.00;5.43;;;17.00;99.90;17.40;100802.00;;;;4980016;28;87257;-65
2021/09/13 06:57:58;;;;;;;7.75;5.13;;;17.20;99.90;17.70;100806.00;;;;4979151;28;88590;-65
2021/09/13 07:00:24;;;;;;;6.00;4.32;;;17.40;99.90;17.80;100808.00;;;;4960213;28;101533;-64
2021/09/13 07:02:50;;;;;;;8.93;6.18;;;17.60;99.90;18.00;100813.00;;;;4978209;28;99490;-65
2021/09/13 07:05:16;;;;;;;6.38;4.35;;;17.80;99.90;18.10;100806.00;;;;4979476;28;87801;-65
2021/09/13 07:07:42;;;;;;;8.30;5.07;;;17.90;99.90;18.30;100806.00;;;;4978486;28;88294;-66
2021/09/13 07:10:11;;;;;;;6.90;4.95;;;18.10;99.90;18.40;100806.00;;;;4978873;28;87905;-65
2021/09/13 07:12:37;;;;;;;7.03;4.93;;;18.20;99.90;18.50;100813.00;;;;4978854;28;87592;-65
2021/09/13 07:15:04;;;;;;;7.07;4.68;;;18.30;99.90;18.60;100817.00;;;;4979362;28;87874;-65
2021/09/13 07:17:30;;;;;;;8.38;5.22;;;18.40;99.90;18.70;100830.00;;;;4978670;28;94431;-65
2021/09/13 07:19:56;;;;;;;6.43;4.85;;;18.40;99.90;18.70;100814.00;;;;4979338;28;87961;-64
2021/09/13 07:22:22;;;;;;;7.45;4.88;;;18.50;99.90;18.80;100818.00;;;;4977941;28;98184;-65
2021/09/13 07:24:48;;;;;;;6.00;4.63;;;18.60;99.90;18.80;100826.00;;;;4977764;28;88027;-65
2021/09/13 07:27:14;;;;;;;7.78;5.28;;;18.60;99.90;18.90;100815.00;;;;4977122;28;90080;-65
2021/09/13 07:29:40;;;;;;;10.43;4.65;;;18.70;99.90;19.00;100825.00;;;;4977201;28;93734;-66
2021/09/13 07:32:06;;;;;;;7.00;5.25;;;18.80;99.90;19.10;100816.00;;;;4975514;28;87970;-64
2021/09/13 07:34:33;;;;;;;5.95;4.35;;;18.90;99.90;19.30;100825.00;;;;4978083;28;87742;-64
2021/09/13 07:36:59;;;;;;;9.02;5.63;;;19.00;99.90;19.40;100826.00;;;;4977620;28;88069;-64
2021/09/13 07:39:28;;;;;;;5.28;4.22;;;19.20;99.90;19.50;100825.00;;;;4976332;28;116590;-67
2021/09/13 07:41:54;;;;;;;7.75;5.43;;;19.30;99.90;19.60;100830.00;;;;4977301;28;87800;-66
2021/09/13 07:44:20;;;;;;;9.75;5.47;;;19.40;99.90;19.80;100826.00;;;;4977417;28;86980;-68
2021/09/13 07:46:46;;;;;;;10.27;5.43;;;19.50;99.90;20.10;100833.00;;;;4958517;28;92336;-67
2021/09/13 07:49:12;;;;;;;6.55;4.53;;;19.80;99.90;20.40;100832.00;;;;4958004;28;88049;-68
2021/09/13 07:51:38;;;;;;;6.35;5.05;;;20.10;99.90;20.80;100843.00;;;;4975410;28;110142;-68
2021/09/13 07:54:06;;;;;;;6.07;3.95;;;20.40;99.90;21.00;100830.00;;;;4977415;28;87651;-67
2021/09/13 07:56:34;;;;;;;5.25;4.03;;;20.70;99.90;21.20;100833.00;;;;4977022;28;87729;-69
2021/09/13 07:59:02;;;;;;;9.43;4.82;;;20.90;99.90;21.20;100831.00;;;;4976910;28;87982;-67
2021/09/13 08:01:29;;;;;;;4.88;2.78;;;21.00;99.90;21.40;100833.00;;;;4977035;28;87516;-68
2021/09/13 08:03:55;;;;;;;7.55;4.00;;;21.10;99.90;21.60;100848.00;;;;4976327;28;87638;-68
2021/09/13 08:06:21;;;;;;;4.50;3.25;;;21.30;99.90;21.80;100853.00;;;;4977389;28;87731;-67
2021/09/13 08:08:48;;;;;;;3.55;3.05;;;21.50;99.90;22.00;100860.00;;;;4976945;28;87210;-67
2021/09/13 08:11:13;;;;;;;7.47;3.33;;;21.60;99.90;22.10;100852.00;;;;4976815;28;87570;-67
2021/09/13 08:13:40;;;;;;;4.65;3.65;;;21.80;99.90;22.20;100849.00;;;;4976529;28;90844;-66
2021/09/13 08:16:07;;;;;;;5.72;2.95;;;21.90;99.90;22.40;100860.00;;;;4976301;28;88687;-67
2021/09/13 08:18:33;;;;;;;8.98;5.10;;;22.10;99.90;22.60;100856.00;;;;4974066;28;89369;-67
2021/09/13 08:20:59;;;;;;;8.85;6.78;;;22.20;99.90;22.70;100864.00;;;;4958358;28;87755;-67
2021/09/13 08:23:24;;;;;;;5.57;4.25;;;22.40;99.90;22.90;100862.00;;;;4935662;28;1131630;-66
2021/09/13 08:25:50;;;;;;;3.92;3.50;;;22.60;99.90;23.00;100868.00;;;;4976619;28;92117;-69
2021/09/13 08:28:20;;;;;;;5.00;3.90;;;22.60;99.90;23.20;100868.00;;;;4976365;28;100364;-67
2021/09/13 08:30:49;;;;;;;7.68;2.65;;;22.90;99.90;23.30;100875.00;;;;4977360;28;87628;-67
2021/09/13 08:33:16;;;;;;;5.05;3.20;;;23.00;99.90;23.30;100885.00;;;;4977154;28;86761;-66
2021/09/13 08:35:42;;;;;;;7.70;3.72;;;23.10;99.90;23.30;100886.00;;;;4976763;28;88581;-66
2021/09/13 08:38:08;;;;;;;5.90;3.05;;;23.00;99.90;23.20;100886.00;;;;4976042;28;116161;-68
2021/09/13 08:40:34;;;;;;;5.38;3.50;;;23.00;99.90;23.20;100889.00;;;;4975908;28;109368;-67
2021/09/13 08:43:00;;;;;;;4.05;2.95;;;23.10;99.90;23.10;100891.00;;;;4976649;28;93282;-66
2021/09/13 08:45:47;;;;;;;4.47;3.05;;;22.90;99.90;23.10;100892.00;;;;4976775;28;88664;-67
2021/09/13 08:53:32;;;;;;;4.57;3.38;;;23.20;98.90;23.40;100892.00;;;;4974880;28;87871;-67
2021/09/13 08:55:59;;;;;;;3.92;3.33;;;23.20;97.90;23.40;100900.00;;;;4976757;28;89031;-66
2021/09/13 08:58:25;;;;;;;4.25;3.03;;;23.20;97.40;23.40;100895.00;;;;4977111;28;88192;-67
2021/09/13 09:00:52;;;;;;;5.43;3.55;;;23.20;97.30;23.50;100893.00;;;;4977096;28;87565;-67
2021/09/13 09:03:18;;;;;;;7.88;3.97;;;23.30;97.40;23.70;100885.00;;;;4976321;28;87993;-68
2021/09/13 09:05:53;;;;;;;6.95;3.53;;;23.30;97.20;23.80;100889.00;;;;4957834;28;88750;-67
2021/09/13 09:08:33;;;;;;;5.13;3.40;;;23.50;96.50;23.90;100892.00;;;;4976105;28;89551;-68
2021/09/13 09:11:03;;;;;;;4.07;3.03;;;23.60;96.00;24.10;100884.00;;;;4957850;28;87759;-67
2021/09/13 09:13:42;;;;;;;4.65;2.63;;;23.70;95.40;24.30;100896.00;;;;4977032;28;87950;-67
2021/09/13 09:16:18;;;;;;;4.05;2.95;;;23.90;94.20;24.50;100888.00;;;;4957642;28;89105;-69
2021/09/13 09:18:47;;;;;;;2.58;2.28;;;24.00;93.30;24.60;100894.00;;;;4957532;28;109135;-68
2021/09/13 09:21:31;;;;;;;3.30;2.38;;;24.10;93.00;24.90;100898.00;;;;4973218;28;87722;-68
2021/09/13 09:24:06;;;;;;;2.10;1.55;;;24.40;93.20;25.20;100900.00;;;;4979881;28;86908;-68
2021/09/13 09:26:32;;;;;;;2.78;2.03;;;24.70;92.60;25.50;100898.00;;;;4976916;28;88151;-68
2021/09/13 09:28:59;;;;;;;10.10;1.63;;;25.00;91.80;25.80;100896.00;;;;4975089;28;113179;-68
2021/09/13 09:31:39;;;;;;;6.35;2.17;;;25.30;91.20;26.20;100902.00;;;;4976050;28;88652;-67
2021/09/13 09:34:20;;;;;;;3.10;1.75;;;25.60;90.30;26.40;100911.00;;;;4975364;28;87519;-67
2021/09/13 09:36:57;;;;;;;3.08;2.03;;;25.90;88.20;26.60;100904.00;;;;4958114;28;87917;-67
2021/09/13 09:39:48;;;;;;;2.47;1.88;;;25.90;86.90;26.70;100915.00;;;;4976195;28;88579;-68
2021/09/13 09:42:30;;;;;;;5.90;2.28;;;26.20;85.50;26.70;100902.00;;;;4976106;28;87410;-68
2021/09/13 09:44:58;;;;;;;2.33;1.77;;;26.30;83.90;26.60;100908.00;;;;4958198;28;87678;-68
2021/09/13 09:47:24;;;;;;;2.10;1.88;;;26.50;83.30;26.60;100909.00;;;;4976074;28;88078;-67
2021/09/13 09:49:53;;;;;;;2.50;1.98;;;26.20;82.80;26.60;100910.00;;;;4976098;28;88429;-66
2021/09/13 09:52:37;;;;;;;3.40;2.13;;;26.20;82.40;26.60;100905.00;;;;4975969;28;87714;-67
2021/09/13 09:55:19;;;;;;;2.75;2.00;;;26.20;81.70;26.50;100902.00;;;;4975799;28;87810;-69
2021/09/13 09:58:07;;;;;;;1.73;1.63;;;26.10;81.20;26.30;100906.00;;;;4957043;28;89130;-68
2021/09/13 10:00:34;;;;;;;1.52;1.42;;;26.00;81.40;26.20;100914.00;;;;4975982;28;88039;-69
2021/09/13 10:02:59;;;;;;;2.42;1.50;;;25.80;81.30;26.10;100918.00;;;;4975465;28;87752;-67
2021/09/13 10:05:28;;;;;;;2.58;1.70;;;25.80;80.90;25.90;100908.00;;;;4975502;28;109043;-68
2021/09/13 10:07:55;;;;;;;2.25;1.30;;;25.60;79.10;25.70;100896.00;;;;4974803;28;88930;-68
2021/09/13 10:10:24;;;;;;;3.60;1.38;;;25.40;79.40;25.50;100906.00;;;;4976000;28;88907;-69
2021/09/13 10:12:50;;;;;;;1.95;1.30;;;25.30;79.80;25.40;100901.00;;;;4957065;28;88035;-68
2021/09/13 10:15:17;;;;;;;2.17;1.58;;;25.10;80.10;25.50;100900.00;;;;4975829;28;109225;-68
2021/09/13 10:17:43;;;;;;;1.83;1.50;;;25.10;79.50;25.70;100900.00;;;;4975304;28;88873;-68
2021/09/13 10:20:10;;;;;;;2.67;1.98;;;25.30;78.20;26.00;100906.00;;;;4975045;28;113673;-68
2021/09/13 10:22:39;;;;;;;2.67;1.88;;;25.50;77.00;26.20;100895.00;;;;4956698;28;88756;-68
2021/09/13 10:25:07;;;;;;;1.90;1.45;;;25.60;74.50;26.40;100900.00;;;;4956978;28;87598;-67
2021/09/13 10:27:39;;;;;;;1.38;1.20;;;25.90;72.50;26.70;100897.00;;;;4974721;28;88523;-68
2021/09/13 10:30:22;;;;;;;3.33;1.83;;;26.10;72.30;27.10;100891.00;;;;4975587;28;88155;-68
2021/09/13 10:33:08;;;;;;;1.80;1.25;;;26.50;72.00;27.40;100897.00;;;;4957024;28;87858;-68
2021/09/13 10:36:01;;;;;;;1.48;1.38;;;26.90;69.00;27.40;100904.00;;;;4975599;28;90323;-68
2021/09/13 10:38:45;;;;;;;1.58;1.33;;;27.00;67.70;27.20;100895.00;;;;4975369;28;88096;-67
2021/09/13 10:41:12;;;;;;;1.67;1.33;;;26.90;66.80;27.10;100908.00;;;;4974734;28;88551;-70
2021/09/13 10:44:06;;;;;;;1.60;1.50;;;26.70;67.20;26.80;100908.00;;;;4956966;28;87681;-69
2021/09/13 10:47:04;;;;;;;5.88;1.75;;;26.50;67.10;26.40;100911.00;;;;4957391;28;87613;-69
2021/09/13 10:49:32;;;;;;;4.35;2.45;;;26.20;68.00;26.10;100913.00;;;;4955776;28;88930;-68
2021/09/13 10:52:26;;;;;;;3.65;2.33;;;25.90;68.30;25.70;100915.00;;;;4975063;28;88822;-68
2021/09/13 10:55:13;;;;;;;2.53;1.80;;;25.60;69.00;25.40;100910.00;;;;4975404;28;88014;-69